Time;durP1;ratioP1;P1;durP2;ratioP2;P2;SDS_P1;SDS_P2;PMS_P1;PMS_P2;Temp;Humidity;BMP_temperature;BMP_pressure;BME280_temperature;BME280_humidity;BME280_pressure;Samples;Min_cycle;Max_cycle;Signal;HPM_P1;HPM_P2
2023/10/01 00:00:43;;;;;;;4.03;2.40;;;23.60;54.10;;;;;;5000779;28;20030;-63
2023/10/01 00:03:09;;;;;;;3.78;2.40;;;23.60;54.10;;;;;;4999372;28;20109;-63
2023/10/01 00:05:35;;;;;;;3.92;2.40;;;23.60;54.10;;;;;;4999281;28;20799;-63
2023/10/01 00:08:01;;;;;;;3.78;2.25;;;23.60;54.10;;;;;;5002077;28;20088;-63
2023/10/01 00:10:27;;;;;;;3.75;2.40;;;23.50;54.00;;;;;;4999971;28;20046;-64
2023/10/01 00:12:58;;;;;;;4.10;2.55;;;23.60;54.10;;;;;;4999830;28;20541;-64
2023/10/01 00:15:25;;;;;;;3.95;2.45;;;23.60;54.10;;;;;;5000810;28;20340;-65
2023/10/01 00:17:52;;;;;;;5.10;2.65;;;23.60;54.10;;;;;;4999059;28;20030;-64
2023/10/01 00:20:20;;;;;;;3.42;2.30;;;23.50;54.10;;;;;;4996883;28;20044;-61
2023/10/01 00:22:50;;;;;;;4.05;2.58;;;23.50;54.10;;;;;;4998923;28;20030;-62
2023/10/01 00:25:19;;;;;;;4.32;2.72;;;23.50;54.10;;;;;;4998305;28;20498;-61
2023/10/01 00:27:45;;;;;;;4.10;2.58;;;23.50;54.10;;;;;;5000647;28;20021;-61
2023/10/01 00:30:11;;;;;;;3.80;2.45;;;23.50;54.10;;;;;;4999006;28;20034;-61
2023/10/01 00:32:38;;;;;;;3.72;2.25;;;23.50;54.10;;;;;;4998091;28;20502;-61
2023/10/01 00:35:05;;;;;;;3.92;2.55;;;23.50;54.10;;;;;;4997861;28;20053;-61
2023/10/01 00:37:33;;;;;;;4.20;2.35;;;23.50;54.10;;;;;;5001172;28;20030;-60
2023/10/01 00:39:59;;;;;;;3.80;2.33;;;23.50;54.10;;;;;;4997804;28;20046;-60
2023/10/01 00:42:29;;;;;;;4.13;2.40;;;23.50;54.10;;;;;;5000260;28;20538;-59
2023/10/01 00:44:55;;;;;;;4.13;2.40;;;23.50;54.10;;;;;;4998060;28;20077;-61
2023/10/01 00:47:21;;;;;;;4.07;2.50;;;23.50;54.10;;;;;;5000988;28;20061;-61
2023/10/01 00:49:48;;;;;;;4.13;3.00;;;23.40;54.00;;;;;;4997801;28;20022;-60
2023/10/01 00:52:20;;;;;;;4.03;2.55;;;23.40;54.00;;;;;;4999190;28;20096;-61
2023/10/01 00:54:46;;;;;;;3.80;2.40;;;23.40;54.00;;;;;;4997207;28;20041;-61
2023/10/01 00:57:15;;;;;;;4.18;2.40;;;23.40;54.00;;;;;;4999056;28;20097;-62
2023/10/01 00:59:43;;;;;;;3.85;2.50;;;23.40;54.10;;;;;;4999526;28;20482;-67
2023/10/01 01:02:09;;;;;;;3.58;2.40;;;23.40;54.10;;;;;;4998804;28;20457;-67
2023/10/01 01:04:42;;;;;;;3.90;2.30;;;23.40;54.10;;;;;;4998688;28;20362;-67
2023/10/01 01:07:21;;;;;;;3.92;2.42;;;23.40;54.10;;;;;;5000983;28;20546;-67
2023/10/01 01:09:48;;;;;;;3.88;2.47;;;23.40;54.10;;;;;;5000098;28;20030;-66
2023/10/01 01:12:15;;;;;;;3.75;2.25;;;23.40;54.10;;;;;;4998124;28;20089;-67
2023/10/01 01:14:44;;;;;;;4.05;2.53;;;23.40;54.10;;;;;;4998046;28;20373;-66
2023/10/01 01:17:13;;;;;;;3.67;2.30;;;23.40;54.10;;;;;;5000680;28;20558;-66
2023/10/01 01:19:39;;;;;;;4.43;2.28;;;23.40;54.10;;;;;;4997900;28;20034;-66
2023/10/01 01:22:05;;;;;;;3.75;2.30;;;23.40;54.10;;;;;;4998333;28;20438;-66
2023/10/01 01:24:30;;;;;;;4.05;2.50;;;23.30;54.10;;;;;;4999780;28;20042;-67
2023/10/01 01:27:00;;;;;;;4.30;2.40;;;23.30;54.10;;;;;;4997484;28;20554;-66
2023/10/01 01:29:33;;;;;;;3.95;2.10;;;23.30;54.10;;;;;;4998887;28;20061;-67
2023/10/01 01:34:56;;;;;;;3.63;2.30;;;23.30;54.10;;;;;;4993069;28;20477;-66
2023/10/01 01:40:31;;;;;;;4.15;2.40;;;23.30;54.20;;;;;;4998156;28;20039;-64
2023/10/01 01:43:01;;;;;;;3.50;2.20;;;23.30;54.10;;;;;;4998563;28;20030;-64
2023/10/01 01:45:27;;;;;;;3.75;2.17;;;23.30;54.10;;;;;;5000501;28;20089;-64
2023/10/01 01:47:54;;;;;;;3.90;2.40;;;23.30;54.10;;;;;;5002192;28;20104;-64
2023/10/01 01:50:26;;;;;;;3.83;2.28;;;23.30;54.20;;;;;;5000684;28;20053;-64
2023/10/01 01:52:56;;;;;;;3.72;2.40;;;23.20;54.10;;;;;;5001290;28;20022;-63
2023/10/01 01:55:29;;;;;;;3.75;2.50;;;23.20;54.10;;;;;;5002322;28;20109;-65
2023/10/01 01:58:08;;;;;;;3.55;2.30;;;23.20;54.10;;;;;;5002463;28;20034;-64
2023/10/01 02:00:35;;;;;;;3.47;2.33;;;23.20;54.10;;;;;;5001188;28;20108;-63
2023/10/01 02:03:10;;;;;;;3.25;2.15;;;23.20;54.10;;;;;;5004379;28;20054;-63
2023/10/01 02:05:45;;;;;;;3.45;2.35;;;23.20;54.10;;;;;;4999079;28;20370;-63
2023/10/01 02:08:32;;;;;;;3.28;2.25;;;23.20;54.20;;;;;;5001897;28;20033;-62
2023/10/01 02:11:04;;;;;;;3.00;2.00;;;23.20;54.20;;;;;;5001139;28;20030;-66
2023/10/01 02:13:33;;;;;;;4.20;2.53;;;23.20;54.20;;;;;;4998480;28;20097;-65
2023/10/01 02:16:18;;;;;;;3.67;2.33;;;23.20;54.20;;;;;;5000211;28;20038;-66
2023/10/01 02:18:55;;;;;;;3.20;2.30;;;23.20;54.20;;;;;;5004616;28;20517;-66
2023/10/01 02:21:43;;;;;;;3.35;2.13;;;23.20;54.20;;;;;;5000851;28;20083;-66
2023/10/01 02:24:14;;;;;;;3.72;2.20;;;23.20;54.20;;;;;;5002554;28;20036;-67
2023/10/01 02:26:46;;;;;;;3.58;2.20;;;23.20;54.20;;;;;;5001811;28;20463;-67
2023/10/01 02:29:13;;;;;;;3.50;2.08;;;23.10;54.20;;;;;;5001627;28;20548;-67
2023/10/01 02:31:54;;;;;;;3.60;2.20;;;23.10;54.20;;;;;;5004167;28;20110;-65
2023/10/01 02:34:21;;;;;;;3.63;2.05;;;23.10;54.20;;;;;;5001616;28;20564;-67
2023/10/01 02:36:47;;;;;;;3.53;2.15;;;23.10;54.20;;;;;;4998872;28;20104;-67
2023/10/01 02:39:28;;;;;;;3.70;2.42;;;23.10;54.20;;;;;;5001439;28;20034;-67
2023/10/01 02:42:09;;;;;;;3.53;2.20;;;23.10;54.20;;;;;;5002138;28;20025;-66
2023/10/01 02:44:38;;;;;;;3.78;2.33;;;23.10;54.70;;;;;;5001193;28;20057;-67
2023/10/01 02:47:17;;;;;;;3.38;2.10;;;23.10;54.20;;;;;;4999706;28;20022;-66
2023/10/01 02:49:49;;;;;;;4.00;2.20;;;23.10;54.20;;;;;;5002499;28;20089;-64
2023/10/01 02:52:36;;;;;;;2.83;2.00;;;23.10;54.20;;;;;;5007330;28;20088;-64
2023/10/01 02:55:06;;;;;;;3.20;1.90;;;23.00;54.20;;;;;;5001102;28;20154;-64
2023/10/01 02:57:33;;;;;;;3.30;2.08;;;23.00;54.20;;;;;;4998528;28;20058;-64
2023/10/01 03:00:20;;;;;;;3.78;2.03;;;23.00;54.20;;;;;;4999852;28;20034;-62
2023/10/01 03:02:51;;;;;;;3.60;2.28;;;23.00;54.20;;;;;;5001608;28;20044;-62
2023/10/01 03:07:52;;;;;;;3.58;2.17;;;23.00;54.20;;;;;;5001699;28;20050;-60
2023/10/01 03:10:25;;;;;;;3.13;2.08;;;23.00;54.20;;;;;;4999842;28;20038;-63
2023/10/01 03:12:59;;;;;;;3.20;1.98;;;23.00;54.20;;;;;;5000294;28;20092;-60
2023/10/01 03:15:27;;;;;;;3.85;2.20;;;23.00;54.20;;;;;;5000769;28;20041;-62
2023/10/01 03:17:57;;;;;;;3.28;1.90;;;23.00;54.20;;;;;;5001757;28;20425;-61
2023/10/01 03:23:07;;;;;;;4.32;2.10;;;23.00;54.20;;;;;;5001609;28;20363;-67
2023/10/01 03:25:41;;;;;;;3.42;2.08;;;23.00;54.30;;;;;;5001417;28;20497;-67
2023/10/01 03:28:25;;;;;;;3.20;2.03;;;22.90;54.20;;;;;;5001859;28;20494;-66
2023/10/01 03:31:01;;;;;;;4.20;2.05;;;23.00;54.30;;;;;;5000615;28;20022;-67
2023/10/01 03:33:30;;;;;;;3.22;2.00;;;22.90;54.30;;;;;;5001031;28;20138;-67
2023/10/01 03:35:57;;;;;;;3.30;2.13;;;22.90;54.20;;;;;;4997629;28;20037;-67
2023/10/01 03:38:24;;;;;;;3.45;2.17;;;22.90;54.30;;;;;;5001511;28;20045;-66
2023/10/01 03:41:00;;;;;;;3.85;2.20;;;23.00;54.30;;;;;;5001528;28;20042;-66
2023/10/01 03:43:35;;;;;;;3.25;2.10;;;22.90;54.20;;;;;;4998158;28;20497;-67
2023/10/01 03:48:58;;;;;;;3.22;2.13;;;22.90;54.30;;;;;;5001805;28;20030;-66
2023/10/01 03:51:52;;;;;;;3.38;2.00;;;22.90;54.30;;;;;;5001116;28;20057;-67
2023/10/01 03:54:20;;;;;;;3.08;1.80;;;22.90;54.30;;;;;;5001206;28;20760;-67
2023/10/01 03:56:56;;;;;;;3.60;2.00;;;22.90;54.30;;;;;;4999722;28;20034;-67
2023/10/01 03:59:23;;;;;;;3.25;1.90;;;22.90;54.30;;;;;;4999560;28;20025;-68
2023/10/01 04:01:58;;;;;;;3.15;1.90;;;22.90;54.30;;;;;;5001397;28;20713;-67
2023/10/01 04:04:31;;;;;;;2.60;1.80;;;22.90;54.30;;;;;;5000765;28;20026;-67
2023/10/01 04:07:10;;;;;;;3.10;1.98;;;22.90;54.30;;;;;;4997181;28;20041;-67
2023/10/01 04:09:45;;;;;;;2.85;1.85;;;22.90;54.30;;;;;;4999481;28;20030;-67
2023/10/01 04:12:28;;;;;;;3.40;2.30;;;22.90;54.30;;;;;;5001019;28;20025;-67
2023/10/01 04:15:01;;;;;;;3.10;2.00;;;22.90;54.30;;;;;;4998635;28;20471;-66
2023/10/01 04:17:28;;;;;;;3.40;2.05;;;22.90;54.30;;;;;;4999934;28;20028;-67
2023/10/01 04:20:00;;;;;;;3.60;2.20;;;22.90;54.30;;;;;;5000843;28;20139;-67
2023/10/01 04:22:28;;;;;;;3.75;2.20;;;22.90;54.30;;;;;;4997282;28;20030;-67
2023/10/01 04:25:10;;;;;;;3.17;1.98;;;22.90;54.30;;;;;;4998597;28;20148;-67
2023/10/01 04:27:41;;;;;;;2.97;1.77;;;22.90;54.30;;;;;;4999556;28;20031;-66
2023/10/01 04:30:09;;;;;;;3.50;2.25;;;22.80;54.30;;;;;;4996938;28;20057;-62
2023/10/01 04:32:36;;;;;;;3.25;1.90;;;22.80;54.20;;;;;;4998311;28;20077;-61
2023/10/01 04:35:14;;;;;;;3.20;2.00;;;22.80;54.20;;;;;;4999284;28;20037;-60
2023/10/01 04:37:41;;;;;;;3.28;2.00;;;22.80;54.30;;;;;;4996142;28;20034;-61
2023/10/01 04:40:31;;;;;;;2.92;1.80;;;22.80;54.30;;;;;;4999567;28;20165;-60
2023/10/01 04:43:02;;;;;;;3.22;2.20;;;22.80;54.30;;;;;;4998576;28;20481;-63
2023/10/01 04:45:36;;;;;;;3.60;2.10;;;22.80;54.30;;;;;;5000601;28;20034;-61
2023/10/01 04:48:10;;;;;;;2.47;1.60;;;22.80;54.30;;;;;;4997486;28;20041;-60
2023/10/01 04:50:37;;;;;;;3.17;1.92;;;22.80;54.30;;;;;;4999262;28;20052;-62
2023/10/01 04:53:07;;;;;;;3.45;2.10;;;22.80;54.30;;;;;;4998387;28;20477;-61
2023/10/01 04:55:41;;;;;;;3.30;2.10;;;22.80;54.30;;;;;;4996961;28;20034;-62
2023/10/01 04:58:07;;;;;;;3.17;1.90;;;22.80;54.30;;;;;;4997497;28;20030;-61
2023/10/01 05:00:34;;;;;;;3.13;2.00;;;22.70;54.30;;;;;;4997210;28;20038;-64
2023/10/01 05:03:03;;;;;;;3.85;2.30;;;22.80;54.30;;;;;;4999004;28;20030;-64
2023/10/01 05:05:29;;;;;;;2.45;1.65;;;22.70;54.30;;;;;;4998729;28;20030;-64
2023/10/01 05:07:56;;;;;;;3.72;2.10;;;22.80;54.30;;;;;;4998718;28;20124;-64
2023/10/01 05:10:26;;;;;;;3.03;1.92;;;22.70;54.30;;;;;;4997533;28;20022;-64
2023/10/01 05:12:58;;;;;;;3.00;1.90;;;22.70;54.30;;;;;;4999406;28;20038;-64
2023/10/01 05:15:35;;;;;;;2.85;1.80;;;22.70;54.30;;;;;;4997095;28;20056;-64
2023/10/01 05:18:04;;;;;;;3.22;1.90;;;22.70;54.30;;;;;;4998820;28;20470;-64
2023/10/01 05:20:31;;;;;;;3.08;1.85;;;22.70;54.30;;;;;;4996819;28;20049;-62
2023/10/01 05:23:02;;;;;;;3.72;2.03;;;22.70;54.40;;;;;;4998660;28;20034;-60
2023/10/01 05:25:31;;;;;;;2.70;1.73;;;22.70;54.40;;;;;;4997061;28;20041;-61
2023/10/01 05:27:59;;;;;;;3.67;2.20;;;22.70;54.40;;;;;;4999511;28;20038;-61
2023/10/01 05:30:38;;;;;;;3.95;2.25;;;22.70;54.40;;;;;;5000432;28;20491;-61
2023/10/01 05:33:07;;;;;;;;;;;22.70;54.40;;;;;;4998655;28;20030;-60
2023/10/01 05:35:41;;;;;;;3.05;2.05;;;22.70;54.40;;;;;;4998517;28;19906;-60
2023/10/01 05:38:10;;;;;;;3.30;1.90;;;22.70;54.40;;;;;;4997394;28;20042;-62
2023/10/01 05:40:37;;;;;;;3.67;2.00;;;22.70;54.40;;;;;;5000048;28;20492;-62
2023/10/01 05:43:13;;;;;;;3.72;2.08;;;22.70;54.40;;;;;;4999296;28;20117;-60
2023/10/01 05:45:44;;;;;;;3.60;2.13;;;22.70;54.40;;;;;;4998495;28;20049;-61
2023/10/01 05:48:18;;;;;;;4.30;1.73;;;22.60;54.30;;;;;;4999283;28;20022;-61
2023/10/01 05:50:44;;;;;;;2.80;1.70;;;22.60;54.30;;;;;;5000100;28;20078;-59
2023/10/01 05:53:10;;;;;;;3.80;2.15;;;22.60;54.90;;;;;;4997111;28;20038;-61
2023/10/01 05:55:38;;;;;;;2.88;1.88;;;22.60;54.40;;;;;;5000077;28;20022;-61
2023/10/01 05:58:14;;;;;;;2.95;1.73;;;22.60;54.40;;;;;;4999520;28;20456;-62
2023/10/01 06:00:45;;;;;;;3.15;2.10;;;22.60;54.40;;;;;;4996824;28;20034;-62
2023/10/01 06:03:15;;;;;;;3.00;1.90;;;22.60;54.40;;;;;;4999175;28;20041;-61
2023/10/01 06:08:15;;;;;;;3.20;1.80;;;22.60;54.40;;;;;;4997403;28;20030;-61
2023/10/01 06:11:05;;;;;;;3.60;2.17;;;22.60;54.50;;;;;;4997993;28;20034;-62
2023/10/01 06:13:35;;;;;;;3.20;1.80;;;22.60;54.50;;;;;;4997472;28;20029;-61
2023/10/01 06:16:15;;;;;;;2.67;1.63;;;22.60;54.50;;;;;;4997359;28;20030;-62
2023/10/01 06:18:58;;;;;;;3.33;2.00;;;22.60;54.50;;;;;;4997189;28;20049;-61
2023/10/01 06:21:31;;;;;;;3.45;2.17;;;22.60;54.50;;;;;;4997863;28;20018;-61
2023/10/01 06:23:58;;;;;;;3.10;1.92;;;22.50;54.40;;;;;;4998186;28;20045;-61
2023/10/01 06:26:42;;;;;;;3.22;1.90;;;22.60;54.60;;;;;;4999659;28;20117;-61
2023/10/01 06:29:09;;;;;;;3.15;1.88;;;22.60;54.60;;;;;;4997163;28;20381;-64
2023/10/01 06:32:00;;;;;;;3.10;1.85;;;22.60;54.50;;;;;;4999583;28;20045;-64
2023/10/01 06:34:31;;;;;;;2.95;1.77;;;22.60;54.60;;;;;;4999912;28;20023;-64
2023/10/01 06:36:59;;;;;;;3.13;2.10;;;22.60;54.60;;;;;;4999015;28;20034;-64
2023/10/01 06:39:33;;;;;;;3.00;1.80;;;22.50;54.60;;;;;;5001469;28;20036;-64
2023/10/01 06:44:44;;;;;;;2.88;1.60;;;22.50;54.60;;;;;;5001624;28;20406;-64
2023/10/01 06:47:16;;;;;;;3.05;1.80;;;22.50;54.60;;;;;;5000705;28;20022;-64
2023/10/01 06:52:34;;;;;;;3.15;1.90;;;22.50;54.60;;;;;;5000471;28;20038;-64
2023/10/01 06:55:01;;;;;;;3.00;1.80;;;22.50;54.80;;;;;;5015825;28;20034;-64
2023/10/01 06:57:28;;;;;;;2.70;1.88;;;22.50;54.60;;;;;;5000592;28;20489;-64
2023/10/01 06:59:58;;;;;;;2.78;1.63;;;22.50;54.60;;;;;;5000869;28;20034;-65
2023/10/01 07:02:25;;;;;;;3.50;1.75;;;22.50;54.60;;;;;;5000032;28;20051;-64
2023/10/01 07:04:56;;;;;;;2.80;1.75;;;22.50;54.60;;;;;;4999942;28;20031;-65
2023/10/01 07:07:23;;;;;;;3.00;1.90;;;22.50;54.60;;;;;;4998545;28;20532;-64
2023/10/01 07:09:49;;;;;;;3.28;2.05;;;22.50;54.60;;;;;;5000732;28;20109;-65
2023/10/01 07:12:17;;;;;;;3.20;2.00;;;22.50;54.60;;;;;;5002767;28;20513;-65
2023/10/01 07:14:43;;;;;;;3.42;1.70;;;22.50;54.60;;;;;;5000117;28;20168;-64
2023/10/01 07:17:13;;;;;;;3.38;1.80;;;22.50;54.60;;;;;;4998689;28;20119;-64
2023/10/01 07:19:43;;;;;;;3.30;2.00;;;22.50;54.60;;;;;;4999776;28;20033;-64
2023/10/01 07:22:09;;;;;;;;;;;22.50;54.60;;;;;;4997707;28;20375;-64
2023/10/01 07:24:36;;;;;;;3.25;1.85;;;22.50;54.70;;;;;;5001242;28;19920;-64
2023/10/01 07:27:05;;;;;;;3.13;1.83;;;22.50;54.60;;;;;;5000585;28;20030;-62
2023/10/01 07:29:36;;;;;;;2.75;1.75;;;22.50;54.60;;;;;;5001985;28;20014;-64
2023/10/01 07:32:08;;;;;;;3.10;1.85;;;22.40;54.60;;;;;;5001068;28;20485;-64
2023/10/01 07:34:42;;;;;;;3.38;1.90;;;22.40;54.60;;;;;;5000345;28;20069;-64
2023/10/01 07:37:23;;;;;;;3.58;2.10;;;22.40;54.60;;;;;;4996848;28;20027;-64
2023/10/01 07:40:01;;;;;;;3.35;1.92;;;22.40;55.10;;;;;;4999104;28;20113;-64
2023/10/01 07:42:27;;;;;;;3.33;1.90;;;22.40;54.60;;;;;;4998861;28;20425;-64
2023/10/01 07:44:53;;;;;;;3.40;2.00;;;22.40;54.60;;;;;;4999300;28;20091;-63
2023/10/01 07:47:29;;;;;;;3.35;1.90;;;22.40;54.60;;;;;;5000812;28;20149;-64
2023/10/01 07:50:02;;;;;;;3.00;1.90;;;22.40;54.60;;;;;;4998687;28;20033;-64
2023/10/01 07:52:28;;;;;;;3.80;2.05;;;22.40;54.60;;;;;;4999834;28;20045;-64
2023/10/01 07:54:57;;;;;;;2.95;1.98;;;22.40;54.60;;;;;;4999531;28;20447;-64
2023/10/01 07:57:28;;;;;;;4.15;2.30;;;22.40;54.60;;;;;;4998659;28;20517;-64
2023/10/01 07:59:55;;;;;;;4.18;2.10;;;22.40;54.60;;;;;;5000247;28;20104;-65
2023/10/01 08:02:21;;;;;;;3.15;2.10;;;22.40;54.60;;;;;;4998233;28;20034;-64
2023/10/01 08:07:18;;;;;;;3.33;2.00;;;22.40;54.60;;;;;;5000232;28;20034;-65
2023/10/01 08:09:57;;;;;;;3.40;2.10;;;22.40;54.60;;;;;;5001718;28;20937;-65
2023/10/01 08:12:56;;;;;;;3.70;2.25;;;22.40;54.70;;;;;;4999339;28;20486;-65
2023/10/01 08:15:16;;;;;;;4.63;2.30;;;22.40;54.70;;;;;;4997238;28;20070;-65
2023/10/01 08:17:43;;;;;;;4.35;2.60;;;22.40;54.80;;;;;;4998055;28;20026;-65
2023/10/01 08:20:21;;;;;;;4.20;2.60;;;22.40;54.80;;;;;;4999597;28;20032;-65
2023/10/01 08:25:42;;;;;;;3.58;2.30;;;22.40;54.90;;;;;;4998524;28;20041;-65
2023/10/01 08:28:26;;;;;;;4.40;2.80;;;22.40;54.90;;;;;;4999260;28;20546;-66
2023/10/01 08:31:20;;;;;;;3.83;2.20;;;22.40;55.00;;;;;;5001997;28;20402;-63
2023/10/01 08:33:51;;;;;;;3.60;2.60;;;22.40;55.00;;;;;;4997518;28;20521;-63
2023/10/01 08:36:18;;;;;;;3.60;2.20;;;22.40;55.00;;;;;;4997560;28;20033;-62
2023/10/01 08:38:48;;;;;;;3.70;2.50;;;22.40;55.00;;;;;;4997281;28;20470;-61
2023/10/01 08:41:32;;;;;;;4.15;2.40;;;22.40;55.00;;;;;;4998538;28;20033;-62
2023/10/01 08:44:09;;;;;;;4.00;2.50;;;22.40;55.00;;;;;;4999522;28;20013;-62
2023/10/01 08:46:39;;;;;;;3.25;2.20;;;22.40;55.00;;;;;;4999323;28;20026;-61
2023/10/01 08:49:22;;;;;;;3.72;2.47;;;22.40;55.00;;;;;;4999569;28;20026;-60
2023/10/01 08:51:52;;;;;;;3.38;2.15;;;22.40;55.10;;;;;;4998951;28;20489;-62
2023/10/01 08:54:23;;;;;;;4.13;2.38;;;22.40;55.10;;;;;;4996497;28;20430;-61
2023/10/01 08:56:49;;;;;;;5.25;2.72;;;22.40;55.00;;;;;;4998396;28;20037;-62
2023/10/01 08:59:23;;;;;;;5.88;3.60;;;22.40;55.10;;;;;;5000453;28;20026;-60
2023/10/01 09:01:52;;;;;;;6.35;3.90;;;22.40;55.10;;;;;;4999094;28;20064;-62
2023/10/01 09:07:09;;;;;;;6.32;4.05;;;22.50;54.90;;;;;;4996513;28;20033;-60
2023/10/01 09:09:51;;;;;;;5.88;3.70;;;22.50;54.70;;;;;;4998286;28;20041;-64
2023/10/01 09:12:18;;;;;;;7.22;4.00;;;22.50;54.70;;;;;;5000305;28;20065;-63
2023/10/01 09:14:46;;;;;;;5.18;3.58;;;22.50;54.60;;;;;;4999670;28;20581;-64
2023/10/01 09:17:27;;;;;;;5.00;3.53;;;22.60;54.70;;;;;;4998234;28;20030;-63
2023/10/01 09:19:54;;;;;;;6.55;3.90;;;22.60;54.60;;;;;;4997014;28;20502;-63
2023/10/01 09:25:20;;;;;;;6.03;3.90;;;22.60;54.60;;;;;;4999100;28;20042;-63
2023/10/01 09:28:19;;;;;;;5.75;3.58;;;22.60;54.50;;;;;;4997178;28;20033;-65
2023/10/01 09:31:04;;;;;;;6.65;4.03;;;22.60;54.50;;;;;;4998250;28;20022;-63
2023/10/01 09:33:32;;;;;;;6.78;4.05;;;22.60;54.50;;;;;;4997363;28;20053;-63
2023/10/01 09:36:00;;;;;;;6.82;3.40;;;22.70;54.50;;;;;;4999857;28;20405;-63
2023/10/01 09:38:30;;;;;;;5.38;3.40;;;22.70;54.50;;;;;;4995841;28;20034;-63
2023/10/01 09:40:57;;;;;;;6.15;3.40;;;22.70;54.50;;;;;;4997246;28;20148;-65
2023/10/01 09:43:30;;;;;;;5.78;3.35;;;22.70;54.40;;;;;;4997835;28;20034;-65
2023/10/01 09:46:00;;;;;;;5.20;3.70;;;22.70;54.40;;;;;;4997858;28;20594;-64
2023/10/01 09:48:36;;;;;;;7.07;4.43;;;22.70;54.40;;;;;;4996168;28;20378;-64
2023/10/01 09:51:13;;;;;;;5.50;3.35;;;22.70;54.40;;;;;;5005291;28;20124;-64
2023/10/01 09:53:51;;;;;;;5.07;3.50;;;22.80;54.40;;;;;;4996898;28;20026;-65
2023/10/01 09:56:45;;;;;;;5.20;3.25;;;22.80;54.40;;;;;;4998004;28;20039;-65
2023/10/01 09:59:11;;;;;;;5.53;3.60;;;22.80;54.40;;;;;;5000657;28;20513;-61
2023/10/01 10:01:41;;;;;;;6.07;3.08;;;22.80;54.90;;;;;;4999788;28;20088;-61
2023/10/01 10:04:12;;;;;;;4.70;3.10;;;22.90;54.50;;;;;;4997471;28;20048;-61
2023/10/01 10:06:39;;;;;;;5.60;3.00;;;22.80;54.40;;;;;;5000208;28;20052;-61
2023/10/01 10:09:10;;;;;;;4.93;3.13;;;22.90;54.50;;;;;;5001456;28;20096;-61
2023/10/01 10:11:38;;;;;;;4.68;3.13;;;22.90;54.40;;;;;;5002577;28;20101;-61
2023/10/01 10:14:25;;;;;;;4.20;2.70;;;22.90;54.40;;;;;;5002602;28;20463;-61
2023/10/01 10:23:29;;;;;;;5.18;3.17;;;22.90;54.30;;;;;;5001260;28;20083;-67
2023/10/01 10:26:13;;;;;;;4.93;3.10;;;23.00;54.30;;;;;;5001372;28;20034;-68
2023/10/01 10:28:55;;;;;;;4.53;2.95;;;23.00;54.30;;;;;;5002173;28;20046;-67
2023/10/01 10:31:30;;;;;;;5.10;3.20;;;23.00;54.30;;;;;;5000549;28;20033;-67
2023/10/01 10:34:22;;;;;;;4.80;3.30;;;23.00;54.30;;;;;;5001843;28;20036;-67
2023/10/01 10:36:51;;;;;;;4.57;2.88;;;23.00;54.20;;;;;;5001934;28;20470;-66
2023/10/01 10:39:40;;;;;;;;;;;23.00;54.20;;;;;;5001984;28;20041;-67
2023/10/01 10:42:28;;;;;;;5.33;3.20;;;23.10;54.20;;;;;;5002422;28;19905;-67
2023/10/01 10:45:23;;;;;;;6.00;3.42;;;23.10;54.20;;;;;;5001671;28;20283;-66
2023/10/01 10:48:04;;;;;;;4.95;3.45;;;23.10;54.10;;;;;;4998632;28;20070;-67
2023/10/01 10:50:48;;;;;;;5.07;3.05;;;23.20;54.20;;;;;;5002131;28;20031;-67
2023/10/01 10:53:25;;;;;;;8.60;3.30;;;23.10;54.10;;;;;;5000519;28;20032;-67
2023/10/01 10:56:07;;;;;;;5.82;3.53;;;23.20;54.20;;;;;;4998160;28;20137;-67
2023/10/01 10:58:37;;;;;;;7.20;4.43;;;23.20;54.20;;;;;;5001089;28;20037;-67
2023/10/01 11:01:15;;;;;;;6.22;3.80;;;23.20;54.00;;;;;;5000494;28;20054;-68
2023/10/01 11:03:44;;;;;;;6.57;3.80;;;23.20;53.90;;;;;;5007614;28;20038;-68
2023/10/01 11:06:44;;;;;;;5.15;3.63;;;23.20;53.90;;;;;;5002197;28;20359;-68
2023/10/01 11:09:24;;;;;;;5.53;3.60;;;23.30;53.90;;;;;;5001292;28;20431;-68
2023/10/01 11:11:51;;;;;;;7.05;3.97;;;23.30;53.80;;;;;;4999412;28;20050;-67
2023/10/01 11:14:18;;;;;;;7.63;4.18;;;23.30;53.80;;;;;;5002430;28;20104;-67
2023/10/01 11:16:46;;;;;;;5.68;3.50;;;23.30;53.80;;;;;;5000986;28;20367;-67
2023/10/01 11:19:12;;;;;;;6.88;4.00;;;23.30;53.70;;;;;;5000888;28;20137;-68
2023/10/01 11:22:11;;;;;;;5.70;3.78;;;23.40;53.70;;;;;;4999551;28;20026;-68
2023/10/01 11:24:39;;;;;;;6.53;3.80;;;23.40;53.70;;;;;;4986220;28;20057;-69
2023/10/01 11:27:43;;;;;;;6.17;3.60;;;23.40;53.70;;;;;;5000401;28;20037;-68
2023/10/01 11:30:15;;;;;;;6.05;3.78;;;23.40;53.60;;;;;;5000517;28;20260;-65
2023/10/01 11:35:40;;;;;;;6.90;4.47;;;23.40;53.60;;;;;;4999854;28;20049;-65
2023/10/01 11:38:09;;;;;;;8.10;4.60;;;23.40;53.50;;;;;;4998848;28;20057;-65
2023/10/01 11:43:27;;;;;;;8.82;4.50;;;23.40;53.40;;;;;;5000784;28;20402;-65
2023/10/01 11:48:59;;;;;;;9.85;5.60;;;23.40;52.60;;;;;;5001739;28;20030;-66
2023/10/01 11:54:16;;;;;;;9.20;5.78;;;23.40;52.30;;;;;;4997888;28;20116;-66
2023/10/01 11:56:46;;;;;;;10.32;5.72;;;23.40;52.20;;;;;;5000106;28;20449;-66
2023/10/01 11:59:19;;;;;;;8.25;5.05;;;23.40;52.10;;;;;;4998987;28;20030;-62
2023/10/01 12:01:47;;;;;;;7.45;4.85;;;23.40;52.10;;;;;;5001870;28;20512;-62
2023/10/01 12:04:43;;;;;;;8.63;5.40;;;23.40;52.00;;;;;;5001130;28;20296;-62
2023/10/01 12:07:15;;;;;;;8.85;5.60;;;23.40;52.10;;;;;;4997931;28;20045;-62
2023/10/01 12:09:52;;;;;;;9.00;5.38;;;23.40;51.60;;;;;;4998302;28;20065;-67
2023/10/01 12:12:19;;;;;;;9.07;5.20;;;23.40;51.40;;;;;;4999931;28;20378;-68
2023/10/01 12:15:33;;;;;;;8.35;5.30;;;23.40;51.30;;;;;;5001069;28;20027;-67
2023/10/01 12:17:44;;;;;;;9.57;5.63;;;23.40;51.30;;;;;;4998112;28;20053;-67
2023/10/01 12:20:22;;;;;;;7.38;4.60;;;23.40;51.30;;;;;;5000310;28;20037;-66
2023/10/01 12:23:11;;;;;;;9.23;5.60;;;23.40;51.20;;;;;;4998577;28;20116;-68
2023/10/01 12:25:46;;;;;;;9.02;6.00;;;23.50;51.20;;;;;;4998424;28;20034;-68
2023/10/01 12:28:18;;;;;;;8.90;5.35;;;23.40;51.00;;;;;;4999026;28;20026;-68
2023/10/01 12:30:46;;;;;;;8.35;5.10;;;23.40;50.90;;;;;;5001072;28;20508;-64
2023/10/01 12:33:14;;;;;;;8.25;4.90;;;23.40;50.90;;;;;;4997478;28;20030;-64
2023/10/01 12:35:39;;;;;;;9.73;5.47;;;23.40;50.70;;;;;;4999568;28;20105;-64
2023/10/01 12:38:05;;;;;;;8.70;5.43;;;23.40;50.60;;;;;;4999348;28;20026;-63
2023/10/01 12:40:37;;;;;;;8.57;5.20;;;23.50;50.30;;;;;;4997476;28;20394;-64
2023/10/01 12:43:32;;;;;;;8.95;5.38;;;23.50;50.30;;;;;;4997527;28;20018;-64
2023/10/01 12:45:50;;;;;;;7.75;4.70;;;23.50;50.30;;;;;;5000658;28;20164;-64
2023/10/01 12:48:20;;;;;;;9.23;5.43;;;23.50;50.40;;;;;;4999923;28;20030;-64
2023/10/01 12:50:59;;;;;;;8.32;4.90;;;23.50;50.50;;;;;;4998056;28;20042;-67
2023/10/01 12:53:26;;;;;;;8.23;5.10;;;23.50;50.70;;;;;;4998755;28;20018;-67
2023/10/01 12:55:52;;;;;;;8.27;4.88;;;23.50;50.70;;;;;;4999776;28;20048;-67
2023/10/01 12:58:37;;;;;;;7.65;4.88;;;23.50;50.70;;;;;;4999954;28;20038;-67
2023/10/01 13:01:07;;;;;;;7.45;4.60;;;23.50;50.40;;;;;;4999737;28;20060;-69
2023/10/01 13:03:42;;;;;;;7.93;4.88;;;23.50;50.40;;;;;;4999498;28;20022;-68
2023/10/01 13:06:12;;;;;;;7.13;4.13;;;23.60;50.20;;;;;;4998470;28;20022;-67
2023/10/01 13:08:41;;;;;;;9.25;5.88;;;23.50;50.10;;;;;;4999237;28;20033;-68
2023/10/01 13:11:07;;;;;;;10.65;5.72;;;23.50;49.90;;;;;;4996142;28;20029;-67
2023/10/01 13:13:35;;;;;;;9.52;5.85;;;23.60;50.00;;;;;;4999511;28;20463;-67
2023/10/01 13:16:01;;;;;;;8.75;5.50;;;23.60;49.20;;;;;;5000035;28;20038;-68
2023/10/01 13:18:31;;;;;;;8.18;5.25;;;23.60;48.90;;;;;;4998947;28;20533;-67
2023/10/01 13:23:28;;;;;;;9.77;5.80;;;23.60;49.00;;;;;;5000585;28;19905;-67
2023/10/01 13:26:07;;;;;;;9.13;5.47;;;23.70;49.10;;;;;;4996702;28;20173;-67
2023/10/01 13:34:08;;;;;;;6.57;4.07;;;23.70;49.00;;;;;;4998836;28;20070;-62
2023/10/01 14:12:12;;;;;;;5.55;3.50;;;23.90;47.10;;;;;;5002777;28;20049;-68
2023/10/01 14:14:37;;;;;;;5.53;3.65;;;23.80;47.00;;;;;;5002367;28;20072;-68
2023/10/01 14:17:15;;;;;;;6.90;4.22;;;23.90;47.30;;;;;;5000772;28;20453;-68
2023/10/01 14:19:51;;;;;;;8.43;4.20;;;23.90;47.50;;;;;;5002248;28;20026;-67
2023/10/01 14:22:21;;;;;;;6.72;3.80;;;23.90;47.30;;;;;;5002465;28;20470;-68
2023/10/01 14:24:46;;;;;;;;;;;23.90;47.20;;;;;;5002978;28;20572;-68
2023/10/01 14:27:24;;;;;;;6.38;3.58;;;23.90;46.90;;;;;;5002301;28;19909;-68
2023/10/01 14:30:00;;;;;;;6.55;3.88;;;23.90;47.10;;;;;;5004404;28;20096;-68
2023/10/01 14:32:34;;;;;;;6.57;3.90;;;24.00;46.60;;;;;;5001776;28;20015;-67
2023/10/01 14:35:37;;;;;;;6.93;3.97;;;24.00;46.40;;;;;;5003012;28;20121;-68
2023/10/01 14:37:55;;;;;;;7.10;4.30;;;24.00;46.00;;;;;;5000893;28;20427;-67
2023/10/01 14:40:23;;;;;;;6.85;4.05;;;24.00;45.80;;;;;;5001347;28;20064;-67
2023/10/01 14:42:55;;;;;;;6.22;3.88;;;24.00;46.20;;;;;;5000734;28;20443;-68
2023/10/01 14:45:32;;;;;;;6.00;3.80;;;24.00;46.20;;;;;;5001653;28;20463;-68
2023/10/01 14:48:06;;;;;;;6.45;3.90;;;24.00;45.80;;;;;;5003013;28;20435;-67
2023/10/01 14:50:40;;;;;;;6.30;3.50;;;24.10;45.60;;;;;;5001825;28;20019;-65